Time;durP1;ratioP1;P1;durP2;ratioP2;P2;SDS_P1;SDS_P2;PMS_P1;PMS_P2;Temp;Humidity;BMP_temperature;BMP_pressure;BME280_temperature;BME280_humidity;BME280_pressure;Samples;Min_cycle;Max_cycle;Signal;HPM_P1;HPM_P2
2023/08/22 00:00:49;;;;;;;8.10;3.60;;;18.40;99.90;;;;;;5036542;28;20041;-72
2023/08/22 00:03:16;;;;;;;7.47;3.30;;;18.40;99.90;;;;;;5017343;28;20046;-72
2023/08/22 00:05:42;;;;;;;10.35;3.90;;;18.40;99.90;;;;;;5034180;28;20079;-72
2023/08/22 00:08:07;;;;;;;11.25;5.20;;;18.40;99.90;;;;;;5067215;28;20041;-72
2023/08/22 00:10:34;;;;;;;14.70;5.53;;;18.40;99.90;;;;;;5033790;28;20577;-73
2023/08/22 00:13:00;;;;;;;12.10;5.38;;;18.30;99.90;;;;;;5065753;28;20096;-73
2023/08/22 00:15:26;;;;;;;10.07;4.25;;;18.40;99.90;;;;;;5062905;28;20174;-72
2023/08/22 00:17:52;;;;;;;10.63;5.35;;;18.40;99.90;;;;;;5066975;28;20506;-72
2023/08/22 00:20:18;;;;;;;9.02;4.80;;;18.40;99.90;;;;;;5065536;28;20047;-72
2023/08/22 00:22:44;;;;;;;9.00;4.63;;;18.40;99.90;;;;;;5037264;28;20502;-72
2023/08/22 00:25:11;;;;;;;9.38;4.45;;;18.30;99.90;;;;;;5018359;28;20056;-72
2023/08/22 00:27:37;;;;;;;7.05;3.95;;;18.40;99.90;;;;;;5032949;28;20602;-72
2023/08/22 00:30:04;;;;;;;8.50;4.57;;;18.40;99.90;;;;;;5037541;28;20132;-72
2023/08/22 00:32:30;;;;;;;9.13;5.38;;;18.40;99.90;;;;;;5042410;28;20038;-71
2023/08/22 00:34:56;;;;;;;9.57;4.68;;;18.40;99.90;;;;;;5043260;28;20075;-72
2023/08/22 00:37:22;;;;;;;10.07;5.07;;;18.40;99.90;;;;;;5044173;28;20045;-72
2023/08/22 00:39:48;;;;;;;9.32;4.35;;;18.40;99.90;;;;;;5078077;28;20567;-73
2023/08/22 00:42:14;;;;;;;9.00;4.85;;;18.40;99.90;;;;;;5045558;28;20041;-73
2023/08/22 00:44:40;;;;;;;10.45;5.40;;;18.40;99.90;;;;;;5046147;28;20444;-71
2023/08/22 00:47:06;;;;;;;10.95;5.22;;;18.30;99.90;;;;;;5046612;28;20040;-73
2023/08/22 00:49:33;;;;;;;10.75;4.80;;;18.30;99.90;;;;;;5046707;28;20051;-73
2023/08/22 00:52:01;;;;;;;9.63;4.85;;;18.30;99.90;;;;;;5046632;28;20053;-73
2023/08/22 00:54:30;;;;;;;11.32;5.38;;;18.30;99.90;;;;;;5041525;28;20055;-71
2023/08/22 00:56:57;;;;;;;8.73;4.65;;;18.20;99.90;;;;;;5046518;28;20430;-73
2023/08/22 00:59:27;;;;;;;8.60;4.53;;;18.20;99.90;;;;;;5029949;28;20041;-72
2023/08/22 01:01:53;;;;;;;12.02;6.28;;;18.20;99.90;;;;;;5046703;28;20149;-72
2023/08/22 01:04:19;;;;;;;12.93;5.60;;;18.20;99.90;;;;;;5046226;28;20041;-72
2023/08/22 01:07:17;;;;;;;10.57;4.90;;;18.20;99.90;;;;;;5046267;28;20119;-73
2023/08/22 01:09:52;;;;;;;10.57;5.93;;;18.20;99.90;;;;;;5029574;28;20494;-73
2023/08/22 01:12:50;;;;;;;11.55;5.43;;;18.10;99.90;;;;;;5047914;28;20127;-72
2023/08/22 01:15:26;;;;;;;13.88;6.80;;;18.10;99.90;;;;;;5037077;28;20510;-72
2023/08/22 01:18:01;;;;;;;10.57;5.68;;;18.10;99.90;;;;;;5030158;28;20099;-74
2023/08/22 01:20:27;;;;;;;12.40;6.00;;;18.10;99.90;;;;;;5047358;28;20045;-73
2023/08/22 01:22:57;;;;;;;11.82;5.28;;;18.10;99.90;;;;;;5045842;28;20052;-72
2023/08/22 01:25:29;;;;;;;9.38;4.85;;;18.10;99.90;;;;;;5029525;28;20037;-72
2023/08/22 01:28:05;;;;;;;8.70;5.13;;;18.10;99.90;;;;;;5028590;28;20106;-73
2023/08/22 01:30:43;;;;;;;10.77;5.00;;;18.10;99.90;;;;;;5043880;28;20665;-73
2023/08/22 01:33:33;;;;;;;11.48;5.95;;;18.10;99.90;;;;;;5044128;28;20033;-73
2023/08/22 01:35:59;;;;;;;10.70;5.65;;;18.10;99.90;;;;;;5047137;28;20053;-73
2023/08/22 01:38:27;;;;;;;9.95;5.07;;;18.10;99.90;;;;;;5045687;28;20209;-73
2023/08/22 01:40:54;;;;;;;10.32;5.13;;;18.10;99.90;;;;;;5047912;28;20055;-72
2023/08/22 01:43:21;;;;;;;10.63;4.70;;;18.00;99.90;;;;;;5048199;28;20040;-72
2023/08/22 01:45:47;;;;;;;11.85;5.45;;;18.00;99.90;;;;;;5049021;28;20053;-72
2023/08/22 01:48:13;;;;;;;9.27;4.80;;;18.00;99.90;;;;;;5049588;28;20068;-72
2023/08/22 01:50:38;;;;;;;10.32;5.35;;;18.00;99.90;;;;;;5046576;28;20568;-73
2023/08/22 01:53:04;;;;;;;10.40;4.85;;;18.00;99.90;;;;;;5047470;28;20080;-72
2023/08/22 01:55:30;;;;;;;10.60;5.40;;;18.00;99.90;;;;;;5045717;28;20347;-72
2023/08/22 01:57:58;;;;;;;9.25;5.20;;;18.00;99.90;;;;;;5039481;28;20103;-71
2023/08/22 02:00:24;;;;;;;10.10;5.22;;;18.00;99.90;;;;;;5038196;28;20029;-69
2023/08/22 02:02:50;;;;;;;10.82;5.40;;;17.90;99.90;;;;;;5040362;28;20037;-70
2023/08/22 02:05:16;;;;;;;11.05;5.28;;;17.90;99.90;;;;;;5071079;28;20648;-70
2023/08/22 02:07:41;;;;;;;11.15;5.05;;;17.90;99.90;;;;;;5044583;28;20059;-70
2023/08/22 02:10:07;;;;;;;10.02;5.32;;;17.90;99.90;;;;;;5045195;28;20493;-70
2023/08/22 02:12:33;;;;;;;11.10;5.20;;;17.90;99.90;;;;;;5046989;28;20121;-70
2023/08/22 02:14:59;;;;;;;9.48;4.63;;;17.90;99.90;;;;;;5046838;28;20536;-69
2023/08/22 02:17:25;;;;;;;10.27;5.00;;;17.90;99.90;;;;;;5044439;28;20055;-69
2023/08/22 02:19:50;;;;;;;10.20;5.00;;;17.80;99.90;;;;;;5044780;28;20182;-70
2023/08/22 02:22:16;;;;;;;9.73;5.43;;;17.80;99.90;;;;;;5045019;28;20059;-69
2023/08/22 02:24:42;;;;;;;8.70;4.85;;;17.80;99.90;;;;;;5045929;28;20048;-71
2023/08/22 02:27:08;;;;;;;9.93;4.70;;;17.80;99.90;;;;;;5045214;28;20056;-70
2023/08/22 02:29:34;;;;;;;8.70;4.95;;;17.70;99.90;;;;;;5044893;28;20052;-71
2023/08/22 02:31:59;;;;;;;9.05;4.40;;;17.70;99.90;;;;;;5046108;28;20083;-70
2023/08/22 02:34:25;;;;;;;9.27;5.03;;;17.70;99.90;;;;;;5045778;28;20041;-70
2023/08/22 02:36:51;;;;;;;11.90;5.30;;;17.70;99.90;;;;;;5044818;28;20772;-70
2023/08/22 02:39:17;;;;;;;8.32;4.63;;;17.70;99.90;;;;;;5043724;28;20041;-70
2023/08/22 02:41:43;;;;;;;8.93;4.88;;;17.60;99.90;;;;;;5045017;28;20045;-71
2023/08/22 02:44:09;;;;;;;8.15;4.72;;;17.60;99.90;;;;;;5027483;28;20043;-70
2023/08/22 02:46:35;;;;;;;9.10;4.65;;;17.60;99.90;;;;;;5043960;28;20456;-70
2023/08/22 02:49:01;;;;;;;11.00;5.18;;;17.60;99.90;;;;;;5044521;28;20406;-70
2023/08/22 02:51:27;;;;;;;9.75;4.88;;;17.60;99.90;;;;;;5044358;28;20040;-69
2023/08/22 02:53:53;;;;;;;11.65;4.88;;;17.50;99.90;;;;;;5027239;28;20045;-68
2023/08/22 02:56:18;;;;;;;7.40;4.97;;;17.50;99.90;;;;;;5044495;28;20041;-70
2023/08/22 02:58:46;;;;;;;7.45;4.38;;;17.50;99.90;;;;;;5045803;28;20064;-69
2023/08/22 03:01:12;;;;;;;10.38;4.90;;;17.50;99.90;;;;;;5027670;28;20041;-70
2023/08/22 03:03:38;;;;;;;9.68;4.90;;;17.40;99.90;;;;;;5042867;28;20520;-70
2023/08/22 03:06:04;;;;;;;7.38;4.50;;;17.40;99.90;;;;;;5044555;28;20083;-71
2023/08/22 03:08:30;;;;;;;9.65;4.60;;;17.40;99.90;;;;;;5025933;28;20041;-70
2023/08/22 03:11:00;;;;;;;11.25;5.20;;;17.40;99.90;;;;;;5043761;28;20051;-71
2023/08/22 03:13:28;;;;;;;8.90;5.23;;;17.40;99.90;;;;;;5041913;28;20410;-71
2023/08/22 03:15:54;;;;;;;8.60;4.80;;;17.30;99.90;;;;;;5044183;28;20037;-71
2023/08/22 03:18:20;;;;;;;9.40;4.85;;;17.30;99.90;;;;;;5043261;28;20041;-71
2023/08/22 03:20:46;;;;;;;8.60;4.85;;;17.30;99.90;;;;;;5044201;28;20043;-71
2023/08/22 03:23:12;;;;;;;9.05;4.80;;;17.30;99.90;;;;;;5043010;28;20049;-71
2023/08/22 03:25:37;;;;;;;8.50;4.82;;;17.20;99.90;;;;;;5043216;28;20033;-71
2023/08/22 03:28:03;;;;;;;10.25;4.78;;;17.20;99.90;;;;;;5044707;28;20407;-70
2023/08/22 03:30:29;;;;;;;10.25;5.03;;;17.20;99.90;;;;;;5043480;28;20175;-71
2023/08/22 03:32:54;;;;;;;10.57;4.85;;;17.20;99.90;;;;;;5044706;28;20051;-70
2023/08/22 03:35:20;;;;;;;9.18;5.05;;;17.10;99.90;;;;;;5045399;28;20045;-71
2023/08/22 03:37:46;;;;;;;14.00;4.88;;;17.20;99.90;;;;;;5025033;28;20060;-71
2023/08/22 03:40:12;;;;;;;13.80;5.85;;;17.10;99.90;;;;;;5025746;28;20695;-70
2023/08/22 03:42:37;;;;;;;11.43;5.70;;;17.10;99.90;;;;;;5043635;28;20067;-70
2023/08/22 03:45:03;;;;;;;9.85;4.50;;;17.10;99.90;;;;;;5044645;28;20068;-70
2023/08/22 03:47:29;;;;;;;9.02;4.82;;;17.10;99.90;;;;;;5043056;28;20033;-70
2023/08/22 03:49:55;;;;;;;9.30;5.05;;;17.00;99.90;;;;;;5027091;28;20037;-71
2023/08/22 03:52:20;;;;;;;9.38;4.82;;;17.00;99.90;;;;;;5043990;28;20126;-71
2023/08/22 03:54:46;;;;;;;9.13;5.10;;;17.00;99.90;;;;;;5043982;28;20228;-70
2023/08/22 03:57:12;;;;;;;8.35;5.18;;;17.00;99.90;;;;;;5027229;28;20076;-70
2023/08/22 03:59:37;;;;;;;8.00;4.78;;;17.00;99.90;;;;;;5043292;28;20051;-70
2023/08/22 04:02:03;;;;;;;11.23;5.15;;;17.00;99.90;;;;;;5043550;28;20045;-70
2023/08/22 04:04:29;;;;;;;12.52;5.80;;;16.90;99.90;;;;;;5042875;28;20041;-70
2023/08/22 04:06:55;;;;;;;10.18;5.60;;;16.90;99.90;;;;;;5043624;28;20136;-70
2023/08/22 04:09:20;;;;;;;11.02;4.97;;;16.90;99.90;;;;;;5044189;28;20123;-70
2023/08/22 04:11:46;;;;;;;9.52;5.07;;;16.90;99.90;;;;;;5026869;28;20916;-70
2023/08/22 04:14:12;;;;;;;11.57;5.63;;;16.90;99.90;;;;;;5044707;28;20037;-70
2023/08/22 04:16:37;;;;;;;10.38;5.13;;;16.80;99.90;;;;;;5047514;28;20033;-69
2023/08/22 04:19:03;;;;;;;11.25;5.03;;;16.80;99.90;;;;;;5047714;28;20048;-69
2023/08/22 04:21:29;;;;;;;10.55;4.72;;;16.70;99.90;;;;;;5038725;28;20099;-73
2023/08/22 04:23:55;;;;;;;10.23;5.07;;;16.80;99.90;;;;;;5043187;28;20033;-72
2023/08/22 04:26:21;;;;;;;7.32;4.93;;;16.70;99.90;;;;;;5041637;28;20052;-72
2023/08/22 04:28:47;;;;;;;10.35;4.97;;;16.70;99.90;;;;;;5037525;28;20045;-73
2023/08/22 04:31:12;;;;;;;10.93;5.10;;;16.70;99.90;;;;;;5039460;28;20056;-72
2023/08/22 04:33:38;;;;;;;8.48;5.13;;;16.60;99.90;;;;;;5020116;28;20457;-72
2023/08/22 04:36:05;;;;;;;10.50;5.30;;;16.60;99.90;;;;;;5042886;28;20536;-71
2023/08/22 04:38:31;;;;;;;8.65;4.80;;;16.60;99.90;;;;;;5041273;28;20052;-71
2023/08/22 04:40:58;;;;;;;11.68;4.82;;;16.50;99.90;;;;;;5034423;28;20060;-71
2023/08/22 04:43:24;;;;;;;9.50;5.13;;;16.50;99.90;;;;;;5070424;28;20050;-72
2023/08/22 04:45:53;;;;;;;10.10;4.97;;;16.50;99.90;;;;;;5037297;28;20533;-72
2023/08/22 04:48:18;;;;;;;12.88;5.25;;;16.50;99.90;;;;;;5038647;28;20743;-70
2023/08/22 04:50:44;;;;;;;11.32;5.03;;;16.50;99.90;;;;;;5033072;28;20037;-71
2023/08/22 04:53:10;;;;;;;10.00;5.13;;;16.50;99.90;;;;;;5044003;28;20095;-71
2023/08/22 04:55:35;;;;;;;9.02;5.15;;;16.40;99.90;;;;;;5038221;28;20594;-71
2023/08/22 04:58:01;;;;;;;8.40;5.50;;;16.40;99.90;;;;;;5039864;28;20048;-71
2023/08/22 05:00:27;;;;;;;10.93;5.30;;;16.40;99.90;;;;;;5021174;28;20102;-71
2023/08/22 05:02:53;;;;;;;9.27;5.55;;;16.40;99.90;;;;;;5040477;28;20080;-72
2023/08/22 05:05:18;;;;;;;10.15;5.45;;;16.40;99.90;;;;;;5035067;28;20045;-72
2023/08/22 05:07:44;;;;;;;12.57;6.47;;;16.40;99.90;;;;;;5045192;28;20041;-71
2023/08/22 05:10:10;;;;;;;9.38;5.18;;;16.40;99.90;;;;;;5068495;28;20802;-71
2023/08/22 05:12:36;;;;;;;8.82;5.43;;;16.40;99.90;;;;;;5036920;28;20049;-72
2023/08/22 05:15:02;;;;;;;14.05;5.80;;;16.40;99.90;;;;;;5047296;28;20072;-74
2023/08/22 05:17:28;;;;;;;10.15;5.30;;;16.40;99.90;;;;;;5045937;28;20055;-72
2023/08/22 05:19:53;;;;;;;9.95;5.18;;;16.40;99.90;;;;;;5045976;28;20467;-73
2023/08/22 05:22:19;;;;;;;10.95;5.30;;;16.40;99.90;;;;;;5046027;28;20688;-71
2023/08/22 05:24:45;;;;;;;15.00;7.07;;;16.40;99.90;;;;;;5045761;28;20040;-71
2023/08/22 05:27:10;;;;;;;11.95;5.90;;;16.40;99.90;;;;;;5045894;28;20041;-71
2023/08/22 05:29:36;;;;;;;11.80;6.22;;;16.40;99.90;;;;;;5046690;28;20045;-71
2023/08/22 05:32:02;;;;;;;9.35;5.60;;;16.40;99.90;;;;;;5046139;28;20053;-72
2023/08/22 05:34:28;;;;;;;13.07;6.95;;;16.50;99.90;;;;;;5047120;28;20053;-72
2023/08/22 05:36:53;;;;;;;15.25;6.75;;;16.50;99.90;;;;;;5045331;28;20056;-72
2023/08/22 05:39:19;;;;;;;19.15;6.93;;;16.60;99.90;;;;;;5044481;28;20044;-72
2023/08/22 05:41:45;;;;;;;12.80;7.07;;;16.60;99.90;;;;;;5044925;28;20098;-71
2023/08/22 05:44:10;;;;;;;12.32;6.72;;;16.60;99.90;;;;;;5029154;28;20466;-72
2023/08/22 05:46:36;;;;;;;11.63;6.18;;;16.60;99.90;;;;;;5043968;28;20132;-72
2023/08/22 05:49:02;;;;;;;12.25;6.47;;;16.60;99.90;;;;;;5045347;28;20629;-72
2023/08/22 05:51:27;;;;;;;11.85;6.35;;;16.70;99.90;;;;;;5044152;28;20041;-71
2023/08/22 05:53:53;;;;;;;10.43;6.47;;;16.70;99.90;;;;;;5045435;28;20128;-72
2023/08/22 05:56:19;;;;;;;15.93;6.45;;;16.70;99.90;;;;;;5044788;28;20037;-70
2023/08/22 05:58:45;;;;;;;11.65;6.68;;;16.80;99.90;;;;;;5037903;28;20382;-69
2023/08/22 06:01:10;;;;;;;14.52;7.28;;;16.80;99.90;;;;;;5045047;28;20041;-70
2023/08/22 06:03:38;;;;;;;12.65;6.97;;;16.80;99.90;;;;;;5019008;28;20056;-70
2023/08/22 06:06:04;;;;;;;17.55;8.27;;;16.90;99.90;;;;;;5028174;28;20047;-70
2023/08/22 06:08:30;;;;;;;14.48;6.88;;;16.90;99.90;;;;;;5041460;28;20071;-69
2023/08/22 06:10:55;;;;;;;12.40;7.03;;;16.90;99.90;;;;;;5036993;28;20587;-70
2023/08/22 06:13:21;;;;;;;14.80;6.95;;;16.90;99.90;;;;;;5043372;28;20580;-70
2023/08/22 06:15:47;;;;;;;12.45;7.28;;;17.00;99.90;;;;;;5040874;28;20459;-69
2023/08/22 06:18:13;;;;;;;14.38;6.93;;;17.00;99.90;;;;;;5026012;28;20143;-71
2023/08/22 06:20:39;;;;;;;12.23;7.68;;;17.00;99.90;;;;;;5044543;28;20394;-70
2023/08/22 06:23:05;;;;;;;15.27;6.50;;;17.10;99.90;;;;;;5024435;28;20045;-70
2023/08/22 06:25:34;;;;;;;14.02;6.93;;;17.10;99.90;;;;;;5025974;28;20052;-70
2023/08/22 06:28:00;;;;;;;14.40;6.82;;;17.10;99.90;;;;;;5044151;28;20140;-69
2023/08/22 06:30:29;;;;;;;12.77;6.47;;;17.10;99.90;;;;;;5044946;28;20052;-70
2023/08/22 06:32:55;;;;;;;15.38;7.30;;;17.20;99.90;;;;;;5045342;28;20048;-70
2023/08/22 06:35:20;;;;;;;13.00;5.85;;;17.20;99.90;;;;;;5044291;28;20658;-70
2023/08/22 06:37:46;;;;;;;12.05;6.80;;;17.20;99.90;;;;;;5025877;28;20219;-69
2023/08/22 06:40:12;;;;;;;11.23;6.35;;;17.20;99.90;;;;;;5045406;28;20235;-70
2023/08/22 06:42:38;;;;;;;14.77;7.07;;;17.30;99.90;;;;;;5027548;28;20052;-70
2023/08/22 06:45:04;;;;;;;14.40;6.60;;;17.40;99.90;;;;;;5027838;28;20051;-70
2023/08/22 06:47:30;;;;;;;12.18;6.43;;;17.40;99.90;;;;;;5044483;28;20051;-70
2023/08/22 06:49:59;;;;;;;10.52;5.63;;;17.50;99.90;;;;;;5043657;28;20053;-70
2023/08/22 06:52:24;;;;;;;16.40;6.68;;;17.50;99.90;;;;;;5044413;28;20108;-70
2023/08/22 06:54:50;;;;;;;11.63;6.43;;;17.60;99.90;;;;;;5044201;28;20214;-70
2023/08/22 06:57:16;;;;;;;13.68;6.93;;;17.60;99.90;;;;;;5024280;28;20606;-70
2023/08/22 06:59:42;;;;;;;19.55;7.85;;;17.70;99.90;;;;;;5043785;28;20398;-70
2023/08/22 07:02:07;;;;;;;10.63;6.07;;;17.70;99.90;;;;;;5044197;28;20170;-70
2023/08/22 07:04:33;;;;;;;14.10;6.25;;;17.70;99.90;;;;;;5046093;28;20063;-70
2023/08/22 07:06:59;;;;;;;12.48;6.20;;;17.80;99.90;;;;;;5044637;28;20132;-70
2023/08/22 07:09:25;;;;;;;12.23;6.53;;;17.80;99.90;;;;;;5043400;28;20052;-70
2023/08/22 07:11:51;;;;;;;10.50;6.57;;;17.90;99.90;;;;;;5042554;28;20072;-70
2023/08/22 07:14:16;;;;;;;12.15;7.18;;;18.00;99.90;;;;;;5067847;28;20049;-70
2023/08/22 07:16:42;;;;;;;11.07;7.15;;;18.00;99.90;;;;;;5038372;28;20040;-69
2023/08/22 07:19:08;;;;;;;14.20;6.95;;;18.10;99.90;;;;;;5040887;28;20044;-69
2023/08/22 07:21:34;;;;;;;11.10;6.45;;;18.20;99.90;;;;;;5044711;28;20029;-70
2023/08/22 07:23:59;;;;;;;14.40;6.45;;;18.20;99.90;;;;;;5043914;28;20112;-69
2023/08/22 07:26:25;;;;;;;14.35;7.07;;;18.30;99.90;;;;;;5043858;28;20036;-70
2023/08/22 07:28:51;;;;;;;12.57;6.03;;;18.40;99.90;;;;;;5043323;28;20246;-69
2023/08/22 07:31:17;;;;;;;14.02;6.55;;;18.40;99.90;;;;;;5043191;28;20041;-70
2023/08/22 07:33:42;;;;;;;13.05;6.65;;;18.50;99.90;;;;;;5033665;28;20110;-70
2023/08/22 07:36:17;;;;;;;15.57;6.97;;;18.60;99.90;;;;;;5040522;28;20041;-71
2023/08/22 07:38:42;;;;;;;11.75;6.10;;;18.60;99.90;;;;;;5043389;28;20086;-71
2023/08/22 07:41:10;;;;;;;13.95;6.50;;;18.60;99.90;;;;;;5040425;28;20596;-70
2023/08/22 07:43:36;;;;;;;13.23;6.60;;;18.70;99.90;;;;;;5036085;28;20049;-70
2023/08/22 07:46:02;;;;;;;12.38;6.97;;;18.70;99.90;;;;;;5043459;28;20124;-71
2023/08/22 07:48:28;;;;;;;13.55;6.15;;;18.80;99.90;;;;;;5045405;28;20048;-71
2023/08/22 07:51:00;;;;;;;10.50;5.80;;;18.80;99.90;;;;;;5031233;28;20041;-70
2023/08/22 07:53:26;;;;;;;12.95;5.88;;;19.00;99.90;;;;;;5030966;28;20045;-71
2023/08/22 07:55:51;;;;;;;14.95;6.85;;;19.10;99.90;;;;;;5047970;28;20049;-70
2023/08/22 07:58:17;;;;;;;13.13;6.65;;;19.30;99.90;;;;;;5046958;28;20033;-70
2023/08/22 08:00:49;;;;;;;9.65;5.82;;;19.40;99.90;;;;;;5036754;28;20048;-70
2023/08/22 08:03:15;;;;;;;11.18;6.53;;;19.60;99.90;;;;;;5033113;28;20040;-71
2023/08/22 08:05:40;;;;;;;9.90;5.00;;;19.70;99.90;;;;;;5038779;28;20406;-69
2023/08/22 08:08:07;;;;;;;12.15;5.25;;;19.80;99.90;;;;;;5036560;28;20040;-69
2023/08/22 08:10:35;;;;;;;9.25;4.72;;;20.00;99.90;;;;;;5020809;28;20029;-72
2023/08/22 08:13:01;;;;;;;10.20;4.43;;;20.10;99.90;;;;;;5039609;28;20090;-72
2023/08/22 08:15:30;;;;;;;10.50;4.32;;;20.30;99.90;;;;;;5055158;28;20832;-72
2023/08/22 08:17:58;;;;;;;7.95;3.63;;;20.30;99.90;;;;;;5038717;28;20061;-72
2023/08/22 08:20:25;;;;;;;9.38;3.70;;;20.50;99.90;;;;;;5034173;28;20045;-71
2023/08/22 08:22:50;;;;;;;10.13;3.50;;;20.60;99.90;;;;;;5042099;28;20402;-72
2023/08/22 08:25:16;;;;;;;8.85;3.55;;;20.80;99.90;;;;;;5037994;28;20210;-71
2023/08/22 08:27:42;;;;;;;9.75;3.20;;;20.90;99.90;;;;;;5037502;28;20056;-73
2023/08/22 08:30:10;;;;;;;8.88;3.05;;;21.10;99.90;;;;;;5034261;28;20571;-73
2023/08/22 08:32:35;;;;;;;7.95;3.03;;;21.20;99.90;;;;;;5036303;28;20053;-73
2023/08/22 08:35:01;;;;;;;8.20;3.30;;;21.40;99.90;;;;;;5044411;28;20044;-73
2023/08/22 08:37:30;;;;;;;6.75;3.00;;;21.40;99.90;;;;;;5044314;28;20041;-72
2023/08/22 08:39:59;;;;;;;7.18;3.30;;;21.60;99.90;;;;;;5054870;28;20061;-73
2023/08/22 08:42:25;;;;;;;6.97;2.67;;;21.70;99.90;;;;;;5036197;28;20037;-72
2023/08/22 08:44:51;;;;;;;6.20;2.63;;;21.80;99.90;;;;;;5072911;28;20061;-73
2023/08/22 08:47:16;;;;;;;7.57;2.40;;;21.80;99.90;;;;;;5076483;28;20032;-73
2023/08/22 08:49:42;;;;;;;7.25;2.97;;;21.80;99.90;;;;;;5040978;28;20049;-72
2023/08/22 08:52:11;;;;;;;7.68;2.80;;;21.90;99.90;;;;;;5049478;28;20070;-74
2023/08/22 08:54:36;;;;;;;8.00;2.67;;;22.00;99.90;;;;;;5040381;28;20825;-71
2023/08/22 08:57:03;;;;;;;8.63;2.47;;;22.10;99.90;;;;;;5070127;28;20053;-72
2023/08/22 08:59:30;;;;;;;7.70;2.67;;;22.10;99.90;;;;;;5034513;28;20135;-73
2023/08/22 09:02:03;;;;;;;8.63;3.10;;;22.10;99.90;;;;;;5019405;28;20041;-71
2023/08/22 09:04:28;;;;;;;7.90;3.10;;;22.10;99.90;;;;;;5036660;28;20082;-73
2023/08/22 09:06:54;;;;;;;9.30;3.00;;;22.20;99.90;;;;;;5066723;28;20056;-73
2023/08/22 09:09:20;;;;;;;9.30;3.47;;;22.20;99.90;;;;;;5036727;28;20041;-73
2023/08/22 09:11:49;;;;;;;9.40;3.05;;;22.20;99.90;;;;;;5041473;28;20072;-73
2023/08/22 09:14:22;;;;;;;10.00;3.53;;;22.10;99.90;;;;;;5031609;28;20565;-71
2023/08/22 09:16:49;;;;;;;7.45;3.28;;;22.10;99.90;;;;;;5034893;28;20047;-73
2023/08/22 09:19:14;;;;;;;6.78;3.00;;;22.10;99.90;;;;;;5035871;28;20041;-72
2023/08/22 09:21:59;;;;;;;10.95;3.10;;;22.10;99.90;;;;;;5034050;28;20060;-73
2023/08/22 09:24:27;;;;;;;6.38;3.13;;;22.00;99.90;;;;;;5030324;28;20119;-73
2023/08/22 09:26:53;;;;;;;8.43;3.53;;;22.00;99.90;;;;;;5021976;28;20052;-72
2023/08/22 09:29:30;;;;;;;8.88;3.50;;;22.00;99.90;;;;;;5036223;28;20044;-72
2023/08/22 09:32:06;;;;;;;8.25;3.72;;;22.10;99.90;;;;;;5032694;28;20604;-73
2023/08/22 09:34:33;;;;;;;10.38;3.55;;;22.10;99.90;;;;;;5044204;28;20052;-73
2023/08/22 09:36:59;;;;;;;7.75;4.28;;;22.20;99.90;;;;;;5060402;28;20521;-73
2023/08/22 09:39:26;;;;;;;14.38;4.07;;;22.30;99.90;;;;;;5041154;28;20112;-73
2023/08/22 09:41:56;;;;;;;9.00;4.35;;;22.40;99.90;;;;;;5033125;28;20056;-72
2023/08/22 09:44:24;;;;;;;9.20;4.30;;;22.50;99.90;;;;;;5068729;28;20200;-72
2023/08/22 09:46:51;;;;;;;7.35;4.00;;;22.50;99.90;;;;;;5020072;28;20045;-72
2023/08/22 09:49:18;;;;;;;10.35;4.00;;;22.60;99.90;;;;;;5036479;28;20053;-73
2023/08/22 09:51:45;;;;;;;9.13;3.30;;;22.60;99.90;;;;;;5033431;28;20040;-72
2023/08/22 09:54:12;;;;;;;8.63;3.78;;;22.60;99.90;;;;;;5036488;28;20033;-72
2023/08/22 09:56:38;;;;;;;11.40;3.83;;;22.60;99.90;;;;;;5023242;28;20056;-71
2023/08/22 09:59:03;;;;;;;9.35;3.88;;;22.50;99.90;;;;;;5037448;28;20059;-73
2023/08/22 10:01:33;;;;;;;8.15;3.40;;;22.50;99.90;;;;;;5036191;28;22003;-73
2023/08/22 10:04:03;;;;;;;10.73;3.58;;;22.60;99.90;;;;;;5023792;28;20068;-74
2023/08/22 10:06:30;;;;;;;8.65;3.25;;;22.70;99.90;;;;;;5043187;28;20045;-73
2023/08/22 10:08:57;;;;;;;9.60;4.47;;;22.80;99.90;;;;;;5039641;28;20060;-72
2023/08/22 10:11:26;;;;;;;9.90;4.65;;;22.90;99.90;;;;;;5039149;28;20095;-72
2023/08/22 10:13:52;;;;;;;8.70;4.20;;;22.90;99.90;;;;;;5023075;28;20509;-72
2023/08/22 10:16:19;;;;;;;9.50;3.50;;;22.90;99.90;;;;;;5045251;28;20049;-72
2023/08/22 10:18:45;;;;;;;10.38;3.90;;;22.90;99.90;;;;;;5043162;28;20039;-73
2023/08/22 10:21:11;;;;;;;8.27;3.65;;;22.90;99.90;;;;;;5041937;28;20053;-72
2023/08/22 10:23:52;;;;;;;9.55;3.50;;;23.00;99.90;;;;;;5042227;28;21779;-73
2023/08/22 10:26:21;;;;;;;11.27;4.35;;;23.00;99.90;;;;;;5043268;28;20805;-73
2023/08/22 10:29:16;;;;;;;8.95;3.60;;;23.10;99.90;;;;;;5045950;28;20051;-72
2023/08/22 10:32:03;;;;;;;9.07;2.80;;;23.20;99.90;;;;;;5021977;28;20041;-73
2023/08/22 10:34:37;;;;;;;7.45;2.47;;;23.20;99.90;;;;;;5037357;28;20061;-69
2023/08/22 10:37:06;;;;;;;12.95;2.92;;;23.20;99.90;;;;;;5045066;28;20410;-70
2023/08/22 10:39:43;;;;;;;8.38;2.15;;;23.20;99.90;;;;;;5042852;28;20044;-70
2023/08/22 10:42:19;;;;;;;8.27;2.90;;;23.30;99.90;;;;;;5038191;28;20048;-70
2023/08/22 10:45:15;;;;;;;10.77;2.35;;;23.30;99.90;;;;;;5044434;28;20106;-70
2023/08/22 10:47:40;;;;;;;4.72;2.00;;;23.40;99.90;;;;;;5041220;28;20064;-70
2023/08/22 10:50:11;;;;;;;8.27;2.20;;;23.50;99.90;;;;;;5038595;28;20128;-70
2023/08/22 10:52:39;;;;;;;7.03;2.28;;;23.60;99.90;;;;;;5019810;28;20053;-70
2023/08/22 10:55:13;;;;;;;6.60;2.05;;;23.60;99.90;;;;;;5017997;28;20049;-70
2023/08/22 10:57:47;;;;;;;8.93;2.30;;;23.70;99.90;;;;;;5038328;28;20041;-70
2023/08/22 11:00:19;;;;;;;7.15;2.33;;;23.80;99.90;;;;;;5053723;28;20049;-70
2023/08/22 11:02:47;;;;;;;6.88;1.90;;;23.80;99.90;;;;;;5036115;28;20049;-70
2023/08/22 11:05:14;;;;;;;6.97;1.60;;;23.90;99.90;;;;;;5034716;28;20113;-70
2023/08/22 11:07:46;;;;;;;5.53;2.00;;;24.00;99.90;;;;;;5036706;28;20120;-69
2023/08/22 11:10:23;;;;;;;7.38;1.90;;;24.00;99.90;;;;;;5033732;28;20576;-69
2023/08/22 11:12:50;;;;;;;5.25;1.67;;;24.00;99.90;;;;;;5039115;28;20148;-70
2023/08/22 11:15:17;;;;;;;7.25;1.60;;;24.00;99.90;;;;;;5037760;28;20049;-70
2023/08/22 11:17:46;;;;;;;6.70;1.67;;;24.10;99.90;;;;;;5034830;28;20218;-70
2023/08/22 11:20:14;;;;;;;3.83;1.05;;;24.10;99.90;;;;;;5043251;28;20041;-69
2023/08/22 11:22:42;;;;;;;6.22;1.00;;;24.20;99.90;;;;;;5048042;28;20395;-70
2023/08/22 11:25:08;;;;;;;4.45;0.98;;;24.20;99.90;;;;;;5037773;28;20037;-69
2023/08/22 11:27:38;;;;;;;5.43;1.10;;;24.20;99.90;;;;;;5059472;28;20664;-69
2023/08/22 11:30:05;;;;;;;4.25;1.05;;;24.20;99.90;;;;;;5029046;28;20052;-69
2023/08/22 11:32:33;;;;;;;2.63;0.90;;;24.20;99.90;;;;;;5026880;28;20485;-70
2023/08/22 11:35:03;;;;;;;4.47;1.30;;;24.30;99.90;;;;;;5016945;28;20086;-70
2023/08/22 11:37:31;;;;;;;4.45;1.23;;;24.30;99.90;;;;;;5038260;28;20049;-69
2023/08/22 11:40:00;;;;;;;5.55;1.70;;;24.40;99.90;;;;;;5041983;28;20072;-70
2023/08/22 11:42:33;;;;;;;4.15;1.10;;;24.40;99.90;;;;;;5041019;28;20076;-70
2023/08/22 11:45:21;;;;;;;3.80;1.10;;;24.50;99.90;;;;;;5041831;28;20410;-69
2023/08/22 11:47:48;;;;;;;7.07;1.55;;;24.50;99.90;;;;;;5041353;28;20361;-70
2023/08/22 11:50:14;;;;;;;6.93;1.50;;;24.50;99.90;;;;;;5042338;28;20465;-70
2023/08/22 11:52:47;;;;;;;4.75;1.60;;;24.50;99.90;;;;;;5043395;28;20045;-71
2023/08/22 11:55:25;;;;;;;4.97;1.52;;;24.50;99.90;;;;;;5071509;28;20677;-70
2023/08/22 11:57:55;;;;;;;3.92;1.10;;;24.50;99.90;;;;;;5040773;28;20044;-71
2023/08/22 12:00:21;;;;;;;3.22;1.27;;;24.50;99.90;;;;;;5040806;28;20045;-70
2023/08/22 12:02:51;;;;;;;8.13;1.50;;;24.50;99.90;;;;;;5039961;28;20059;-70
2023/08/22 12:05:38;;;;;;;5.97;1.65;;;24.50;99.90;;;;;;5038489;28;20072;-70
2023/08/22 12:08:07;;;;;;;6.70;2.00;;;24.60;99.90;;;;;;5033497;28;20184;-71
2023/08/22 12:10:50;;;;;;;8.32;2.38;;;24.60;99.90;;;;;;5039169;28;20047;-70
2023/08/22 12:13:21;;;;;;;7.82;2.55;;;24.60;99.90;;;;;;5036752;28;20079;-70
2023/08/22 12:15:47;;;;;;;7.95;2.65;;;24.60;99.90;;;;;;5074887;28;20041;-70
2023/08/22 12:18:14;;;;;;;8.35;3.20;;;24.70;99.90;;;;;;5033766;28;20049;-70
2023/08/22 12:20:42;;;;;;;8.18;2.60;;;24.70;99.90;;;;;;5041519;28;20421;-70
2023/08/22 12:23:10;;;;;;;8.82;2.60;;;24.70;99.90;;;;;;5040387;28;20036;-70
2023/08/22 12:25:41;;;;;;;8.63;2.97;;;24.70;99.90;;;;;;5041419;28;20135;-70
2023/08/22 12:28:08;;;;;;;9.38;2.95;;;24.70;99.90;;;;;;5026496;28;20053;-70
2023/08/22 12:30:35;;;;;;;9.27;2.97;;;24.80;99.90;;;;;;5040621;28;20037;-73
2023/08/22 12:33:03;;;;;;;6.30;2.65;;;24.80;99.90;;;;;;5018716;28;20073;-73
2023/08/22 12:35:29;;;;;;;6.60;2.60;;;24.90;99.90;;;;;;5064495;28;20129;-73
2023/08/22 12:37:55;;;;;;;10.23;3.28;;;24.90;99.90;;;;;;5024817;28;20163;-73
2023/08/22 12:40:21;;;;;;;8.55;3.80;;;24.90;99.90;;;;;;5045441;28;20269;-73
2023/08/22 12:42:46;;;;;;;7.93;3.55;;;25.00;99.90;;;;;;5036613;28;20040;-73
2023/08/22 12:45:12;;;;;;;8.73;3.35;;;25.00;99.90;;;;;;5032561;28;20041;-73